sensor_id;sensor_type;location;lat;lon;timestamp;P1;durP1;ratioP1;P2;durP2;ratioP2
22883;SDS011;13386;24.786;110.488;2023-03-04T00:00:19;123.15;;;39.15;;
22883;SDS011;13386;24.786;110.488;2023-03-04T00:02:50;117.68;;;35.45;;
22883;SDS011;13386;24.786;110.488;2023-03-04T00:05:22;117.15;;;36.92;;
22883;SDS011;13386;24.786;110.488;2023-03-04T00:07:52;116.72;;;38.17;;
22883;SDS011;13386;24.786;110.488;2023-03-04T00:10:22;111.50;;;35.13;;
22883;SDS011;13386;24.786;110.488;2023-03-04T00:12:52;113.22;;;37.08;;
22883;SDS011;13386;24.786;110.488;2023-03-04T00:15:22;117.00;;;36.67;;
22883;SDS011;13386;24.786;110.488;2023-03-04T00:17:52;123.18;;;38.78;;
22883;SDS011;13386;24.786;110.488;2023-03-04T00:20:24;119.60;;;37.35;;
22883;SDS011;13386;24.786;110.488;2023-03-04T00:22:54;115.85;;;36.05;;
22883;SDS011;13386;24.786;110.488;2023-03-04T00:25:25;114.85;;;36.95;;
22883;SDS011;13386;24.786;110.488;2023-03-04T00:27:56;113.82;;;36.13;;
22883;SDS011;13386;24.786;110.488;2023-03-04T00:30:26;111.40;;;35.55;;
22883;SDS011;13386;24.786;110.488;2023-03-04T00:32:56;107.53;;;36.80;;
22883;SDS011;13386;24.786;110.488;2023-03-04T00:35:28;102.03;;;33.45;;
22883;SDS011;13386;24.786;110.488;2023-03-04T00:37:58;114.78;;;36.28;;
22883;SDS011;13386;24.786;110.488;2023-03-04T00:40:28;102.68;;;34.45;;
22883;SDS011;13386;24.786;110.488;2023-03-04T00:42:58;109.88;;;34.42;;
22883;SDS011;13386;24.786;110.488;2023-03-04T00:45:28;106.28;;;34.03;;
22883;SDS011;13386;24.786;110.488;2023-03-04T00:47:59;110.55;;;35.35;;
22883;SDS011;13386;24.786;110.488;2023-03-04T00:50:34;106.40;;;33.78;;
22883;SDS011;13386;24.786;110.488;2023-03-04T00:55:33;105.82;;;34.35;;
22883;SDS011;13386;24.786;110.488;2023-03-04T00:58:03;102.63;;;33.10;;
22883;SDS011;13386;24.786;110.488;2023-03-04T01:00:36;113.30;;;33.72;;
22883;SDS011;13386;24.786;110.488;2023-03-04T01:03:06;99.50;;;32.67;;
22883;SDS011;13386;24.786;110.488;2023-03-04T01:05:38;104.10;;;32.70;;
22883;SDS011;13386;24.786;110.488;2023-03-04T01:08:08;105.28;;;33.92;;
22883;SDS011;13386;24.786;110.488;2023-03-04T01:10:38;95.75;;;30.48;;
22883;SDS011;13386;24.786;110.488;2023-03-04T01:13:09;99.07;;;32.70;;
22883;SDS011;13386;24.786;110.488;2023-03-04T01:15:39;99.47;;;32.80;;
22883;SDS011;13386;24.786;110.488;2023-03-04T01:18:09;97.20;;;31.85;;
22883;SDS011;13386;24.786;110.488;2023-03-04T01:20:41;98.47;;;32.47;;
22883;SDS011;13386;24.786;110.488;2023-03-04T01:23:11;92.82;;;31.23;;
22883;SDS011;13386;24.786;110.488;2023-03-04T01:25:42;94.57;;;31.05;;
22883;SDS011;13386;24.786;110.488;2023-03-04T01:28:14;96.18;;;31.63;;
22883;SDS011;13386;24.786;110.488;2023-03-04T01:30:44;91.93;;;30.35;;
22883;SDS011;13386;24.786;110.488;2023-03-04T01:33:14;89.28;;;30.92;;
22883;SDS011;13386;24.786;110.488;2023-03-04T01:35:46;91.03;;;29.35;;
22883;SDS011;13386;24.786;110.488;2023-03-04T01:38:17;91.32;;;29.95;;
22883;SDS011;13386;24.786;110.488;2023-03-04T01:40:47;95.13;;;30.48;;
22883;SDS011;13386;24.786;110.488;2023-03-04T01:43:19;87.55;;;28.35;;
22883;SDS011;13386;24.786;110.488;2023-03-04T01:45:50;78.93;;;26.25;;
22883;SDS011;13386;24.786;110.488;2023-03-04T01:48:21;89.88;;;28.60;;
22883;SDS011;13386;24.786;110.488;2023-03-04T01:50:55;81.32;;;28.73;;
22883;SDS011;13386;24.786;110.488;2023-03-04T01:53:25;74.75;;;26.33;;
22883;SDS011;13386;24.786;110.488;2023-03-04T01:55:56;80.63;;;27.38;;
22883;SDS011;13386;24.786;110.488;2023-03-04T01:58:28;79.53;;;26.83;;
22883;SDS011;13386;24.786;110.488;2023-03-04T02:00:59;79.95;;;26.30;;
22883;SDS011;13386;24.786;110.488;2023-03-04T02:03:29;79.43;;;26.73;;
22883;SDS011;13386;24.786;110.488;2023-03-04T02:06:01;75.50;;;25.15;;
22883;SDS011;13386;24.786;110.488;2023-03-04T02:08:31;86.60;;;28.90;;
22883;SDS011;13386;24.786;110.488;2023-03-04T02:11:04;77.68;;;24.10;;
22883;SDS011;13386;24.786;110.488;2023-03-04T02:13:34;80.55;;;25.55;;
22883;SDS011;13386;24.786;110.488;2023-03-04T02:16:05;74.43;;;26.17;;
22883;SDS011;13386;24.786;110.488;2023-03-04T02:18:35;77.38;;;25.98;;
22883;SDS011;13386;24.786;110.488;2023-03-04T02:21:10;82.78;;;27.33;;
22883;SDS011;13386;24.786;110.488;2023-03-04T02:23:44;76.03;;;24.65;;
22883;SDS011;13386;24.786;110.488;2023-03-04T02:26:17;72.80;;;25.05;;
22883;SDS011;13386;24.786;110.488;2023-03-04T02:28:51;73.07;;;22.85;;
22883;SDS011;13386;24.786;110.488;2023-03-04T02:31:23;73.57;;;25.55;;
22883;SDS011;13386;24.786;110.488;2023-03-04T02:33:56;73.15;;;23.90;;
22883;SDS011;13386;24.786;110.488;2023-03-04T02:39:21;67.65;;;22.80;;
22883;SDS011;13386;24.786;110.488;2023-03-04T02:41:53;71.70;;;23.00;;
22883;SDS011;13386;24.786;110.488;2023-03-04T02:44:25;65.63;;;22.88;;
22883;SDS011;13386;24.786;110.488;2023-03-04T02:46:57;74.03;;;23.52;;
22883;SDS011;13386;24.786;110.488;2023-03-04T02:49:29;64.28;;;22.63;;
22883;SDS011;13386;24.786;110.488;2023-03-04T02:52:00;69.85;;;23.48;;
22883;SDS011;13386;24.786;110.488;2023-03-04T02:54:31;68.40;;;24.58;;
22883;SDS011;13386;24.786;110.488;2023-03-04T02:57:07;66.82;;;21.52;;
22883;SDS011;13386;24.786;110.488;2023-03-04T02:59:42;70.07;;;23.60;;
22883;SDS011;13386;24.786;110.488;2023-03-04T03:02:17;66.15;;;23.25;;
22883;SDS011;13386;24.786;110.488;2023-03-04T03:04:47;75.20;;;22.52;;
22883;SDS011;13386;24.786;110.488;2023-03-04T03:07:19;67.68;;;23.38;;
22883;SDS011;13386;24.786;110.488;2023-03-04T03:09:50;72.43;;;22.85;;
22883;SDS011;13386;24.786;110.488;2023-03-04T03:12:21;72.28;;;23.45;;
22883;SDS011;13386;24.786;110.488;2023-03-04T03:14:52;70.82;;;22.75;;
22883;SDS011;13386;24.786;110.488;2023-03-04T03:17:24;66.80;;;22.95;;
22883;SDS011;13386;24.786;110.488;2023-03-04T03:19:56;70.28;;;23.05;;
22883;SDS011;13386;24.786;110.488;2023-03-04T03:22:26;72.20;;;23.63;;
22883;SDS011;13386;24.786;110.488;2023-03-04T03:24:56;69.03;;;23.33;;
22883;SDS011;13386;24.786;110.488;2023-03-04T03:27:28;65.65;;;22.50;;
22883;SDS011;13386;24.786;110.488;2023-03-04T03:29:59;69.30;;;21.95;;
22883;SDS011;13386;24.786;110.488;2023-03-04T03:32:29;68.90;;;23.08;;
22883;SDS011;13386;24.786;110.488;2023-03-04T03:34:59;70.88;;;22.27;;
22883;SDS011;13386;24.786;110.488;2023-03-04T03:37:30;66.78;;;20.92;;
22883;SDS011;13386;24.786;110.488;2023-03-04T03:40:00;65.57;;;22.40;;
22883;SDS011;13386;24.786;110.488;2023-03-04T03:42:33;63.10;;;21.95;;
22883;SDS011;13386;24.786;110.488;2023-03-04T03:45:03;63.67;;;22.15;;
22883;SDS011;13386;24.786;110.488;2023-03-04T03:47:34;62.58;;;20.65;;
22883;SDS011;13386;24.786;110.488;2023-03-04T03:50:06;65.80;;;22.95;;
22883;SDS011;13386;24.786;110.488;2023-03-04T03:52:37;70.80;;;23.05;;
22883;SDS011;13386;24.786;110.488;2023-03-04T03:55:11;66.03;;;23.55;;
22883;SDS011;13386;24.786;110.488;2023-03-04T03:57:43;69.72;;;23.85;;
22883;SDS011;13386;24.786;110.488;2023-03-04T04:00:13;67.47;;;21.73;;
22883;SDS011;13386;24.786;110.488;2023-03-04T04:02:45;65.80;;;21.83;;
22883;SDS011;13386;24.786;110.488;2023-03-04T04:05:15;66.47;;;22.02;;
22883;SDS011;13386;24.786;110.488;2023-03-04T04:07:45;68.55;;;21.75;;
22883;SDS011;13386;24.786;110.488;2023-03-04T04:10:15;57.90;;;20.90;;
22883;SDS011;13386;24.786;110.488;2023-03-04T04:12:48;63.00;;;21.88;;
22883;SDS011;13386;24.786;110.488;2023-03-04T04:15:18;59.30;;;21.15;;
22883;SDS011;13386;24.786;110.488;2023-03-04T04:17:50;61.63;;;21.08;;
22883;SDS011;13386;24.786;110.488;2023-03-04T04:20:20;51.00;;;17.90;;
22883;SDS011;13386;24.786;110.488;2023-03-04T04:22:50;62.72;;;21.13;;
22883;SDS011;13386;24.786;110.488;2023-03-04T04:25:21;58.63;;;20.88;;
22883;SDS011;13386;24.786;110.488;2023-03-04T04:27:56;68.97;;;23.05;;
22883;SDS011;13386;24.786;110.488;2023-03-04T04:30:27;63.63;;;20.63;;
22883;SDS011;13386;24.786;110.488;2023-03-04T04:32:57;56.80;;;19.02;;
22883;SDS011;13386;24.786;110.488;2023-03-04T04:35:30;65.68;;;20.90;;
22883;SDS011;13386;24.786;110.488;2023-03-04T04:38:01;60.28;;;21.50;;
22883;SDS011;13386;24.786;110.488;2023-03-04T04:40:33;55.92;;;21.35;;
22883;SDS011;13386;24.786;110.488;2023-03-04T04:43:05;60.00;;;20.05;;
22883;SDS011;13386;24.786;110.488;2023-03-04T04:45:36;61.92;;;21.48;;
22883;SDS011;13386;24.786;110.488;2023-03-04T04:48:07;66.15;;;20.23;;
22883;SDS011;13386;24.786;110.488;2023-03-04T04:50:40;58.63;;;20.00;;
22883;SDS011;13386;24.786;110.488;2023-03-04T04:53:13;62.90;;;21.95;;
22883;SDS011;13386;24.786;110.488;2023-03-04T04:55:43;59.42;;;19.48;;
22883;SDS011;13386;24.786;110.488;2023-03-04T04:58:16;63.88;;;22.30;;
22883;SDS011;13386;24.786;110.488;2023-03-04T05:00:48;54.08;;;20.00;;
22883;SDS011;13386;24.786;110.488;2023-03-04T05:03:18;60.60;;;20.45;;
22883;SDS011;13386;24.786;110.488;2023-03-04T05:05:48;52.05;;;18.88;;
22883;SDS011;13386;24.786;110.488;2023-03-04T05:08:18;61.10;;;19.58;;
22883;SDS011;13386;24.786;110.488;2023-03-04T05:10:49;60.90;;;20.05;;
22883;SDS011;13386;24.786;110.488;2023-03-04T05:13:25;46.65;;;17.23;;
22883;SDS011;13386;24.786;110.488;2023-03-04T05:15:58;57.22;;;18.65;;
22883;SDS011;13386;24.786;110.488;2023-03-04T05:18:28;61.03;;;21.58;;
22883;SDS011;13386;24.786;110.488;2023-03-04T05:20:58;48.65;;;17.55;;
22883;SDS011;13386;24.786;110.488;2023-03-04T05:23:31;50.42;;;17.80;;
22883;SDS011;13386;24.786;110.488;2023-03-04T05:26:01;56.25;;;19.27;;
22883;SDS011;13386;24.786;110.488;2023-03-04T05:28:35;49.60;;;17.48;;
22883;SDS011;13386;24.786;110.488;2023-03-04T05:31:05;53.28;;;18.35;;
22883;SDS011;13386;24.786;110.488;2023-03-04T05:33:38;49.58;;;16.60;;
22883;SDS011;13386;24.786;110.488;2023-03-04T05:36:10;47.00;;;17.08;;
22883;SDS011;13386;24.786;110.488;2023-03-04T05:38:41;54.15;;;17.42;;
22883;SDS011;13386;24.786;110.488;2023-03-04T05:41:11;49.28;;;16.52;;
22883;SDS011;13386;24.786;110.488;2023-03-04T05:43:46;48.88;;;16.67;;
22883;SDS011;13386;24.786;110.488;2023-03-04T05:46:16;50.75;;;17.63;;
22883;SDS011;13386;24.786;110.488;2023-03-04T05:48:51;45.10;;;15.95;;
22883;SDS011;13386;24.786;110.488;2023-03-04T05:51:26;43.60;;;16.10;;
22883;SDS011;13386;24.786;110.488;2023-03-04T05:53:56;47.35;;;16.52;;
22883;SDS011;13386;24.786;110.488;2023-03-04T05:56:27;47.38;;;16.02;;
22883;SDS011;13386;24.786;110.488;2023-03-04T05:59:01;42.83;;;15.23;;
22883;SDS011;13386;24.786;110.488;2023-03-04T06:01:31;42.42;;;14.93;;
22883;SDS011;13386;24.786;110.488;2023-03-04T06:04:05;40.65;;;14.15;;
22883;SDS011;13386;24.786;110.488;2023-03-04T06:06:36;45.60;;;15.00;;
22883;SDS011;13386;24.786;110.488;2023-03-04T06:09:10;43.53;;;14.95;;
22883;SDS011;13386;24.786;110.488;2023-03-04T06:11:41;43.85;;;13.65;;
22883;SDS011;13386;24.786;110.488;2023-03-04T06:14:15;43.97;;;15.43;;
22883;SDS011;13386;24.786;110.488;2023-03-04T06:16:46;45.75;;;15.75;;
22883;SDS011;13386;24.786;110.488;2023-03-04T06:19:18;39.10;;;14.13;;
22883;SDS011;13386;24.786;110.488;2023-03-04T06:21:49;39.58;;;14.45;;
22883;SDS011;13386;24.786;110.488;2023-03-04T06:24:19;42.30;;;14.70;;
22883;SDS011;13386;24.786;110.488;2023-03-04T06:26:49;38.97;;;14.80;;
22883;SDS011;13386;24.786;110.488;2023-03-04T06:29:24;39.10;;;13.90;;
22883;SDS011;13386;24.786;110.488;2023-03-04T06:32:00;42.63;;;14.52;;
22883;SDS011;13386;24.786;110.488;2023-03-04T06:34:31;38.75;;;13.85;;
22883;SDS011;13386;24.786;110.488;2023-03-04T06:37:03;38.33;;;14.18;;
22883;SDS011;13386;24.786;110.488;2023-03-04T06:39:33;35.20;;;13.32;;
22883;SDS011;13386;24.786;110.488;2023-03-04T06:42:04;38.67;;;13.50;;
22883;SDS011;13386;24.786;110.488;2023-03-04T06:44:36;37.70;;;13.80;;
22883;SDS011;13386;24.786;110.488;2023-03-04T06:47:06;40.33;;;14.27;;
22883;SDS011;13386;24.786;110.488;2023-03-04T06:49:40;38.97;;;13.43;;
22883;SDS011;13386;24.786;110.488;2023-03-04T06:52:13;39.25;;;13.68;;
22883;SDS011;13386;24.786;110.488;2023-03-04T06:54:45;35.78;;;13.32;;
22883;SDS011;13386;24.786;110.488;2023-03-04T06:57:17;37.10;;;14.20;;
22883;SDS011;13386;24.786;110.488;2023-03-04T06:59:50;35.78;;;13.48;;
22883;SDS011;13386;24.786;110.488;2023-03-04T07:02:22;32.20;;;12.57;;
22883;SDS011;13386;24.786;110.488;2023-03-04T07:04:54;37.08;;;13.15;;
22883;SDS011;13386;24.786;110.488;2023-03-04T07:07:24;38.90;;;13.25;;
22883;SDS011;13386;24.786;110.488;2023-03-04T07:09:55;37.92;;;14.15;;
22883;SDS011;13386;24.786;110.488;2023-03-04T07:12:26;38.65;;;14.52;;
22883;SDS011;13386;24.786;110.488;2023-03-04T07:15:02;39.42;;;14.85;;
22883;SDS011;13386;24.786;110.488;2023-03-04T07:17:34;34.83;;;13.27;;
22883;SDS011;13386;24.786;110.488;2023-03-04T07:20:05;35.25;;;13.00;;
22883;SDS011;13386;24.786;110.488;2023-03-04T07:22:36;32.13;;;11.52;;
22883;SDS011;13386;24.786;110.488;2023-03-04T07:25:07;37.25;;;13.18;;
22883;SDS011;13386;24.786;110.488;2023-03-04T07:27:37;35.00;;;11.93;;
22883;SDS011;13386;24.786;110.488;2023-03-04T07:30:09;34.85;;;12.50;;
22883;SDS011;13386;24.786;110.488;2023-03-04T07:32:43;34.25;;;12.23;;
22883;SDS011;13386;24.786;110.488;2023-03-04T07:35:16;37.42;;;12.65;;
22883;SDS011;13386;24.786;110.488;2023-03-04T07:37:47;34.72;;;12.43;;
22883;SDS011;13386;24.786;110.488;2023-03-04T07:40:18;34.42;;;12.38;;
22883;SDS011;13386;24.786;110.488;2023-03-04T07:42:50;31.73;;;11.75;;
22883;SDS011;13386;24.786;110.488;2023-03-04T07:45:22;31.70;;;11.80;;
22883;SDS011;13386;24.786;110.488;2023-03-04T07:47:54;35.22;;;12.02;;
22883;SDS011;13386;24.786;110.488;2023-03-04T07:50:29;32.05;;;11.88;;
22883;SDS011;13386;24.786;110.488;2023-03-04T07:53:01;36.47;;;12.10;;
22883;SDS011;13386;24.786;110.488;2023-03-04T07:55:31;32.83;;;11.60;;
22883;SDS011;13386;24.786;110.488;2023-03-04T07:58:03;38.30;;;12.27;;
22883;SDS011;13386;24.786;110.488;2023-03-04T08:00:35;32.85;;;11.90;;
22883;SDS011;13386;24.786;110.488;2023-03-04T08:03:07;32.35;;;11.82;;
22883;SDS011;13386;24.786;110.488;2023-03-04T08:05:38;33.25;;;12.25;;
22883;SDS011;13386;24.786;110.488;2023-03-04T08:08:08;33.85;;;11.77;;
22883;SDS011;13386;24.786;110.488;2023-03-04T08:10:38;34.13;;;11.88;;
22883;SDS011;13386;24.786;110.488;2023-03-04T08:13:08;32.83;;;11.43;;
22883;SDS011;13386;24.786;110.488;2023-03-04T08:15:43;30.45;;;11.20;;
22883;SDS011;13386;24.786;110.488;2023-03-04T08:18:15;34.17;;;12.00;;
22883;SDS011;13386;24.786;110.488;2023-03-04T08:20:45;31.73;;;12.20;;
22883;SDS011;13386;24.786;110.488;2023-03-04T08:23:20;31.63;;;11.50;;
22883;SDS011;13386;24.786;110.488;2023-03-04T08:25:50;31.75;;;11.10;;
22883;SDS011;13386;24.786;110.488;2023-03-04T08:28:20;31.60;;;11.40;;
22883;SDS011;13386;24.786;110.488;2023-03-04T08:30:55;30.17;;;10.70;;
22883;SDS011;13386;24.786;110.488;2023-03-04T08:33:29;38.38;;;11.18;;
22883;SDS011;13386;24.786;110.488;2023-03-04T08:36:00;33.53;;;11.07;;
22883;SDS011;13386;24.786;110.488;2023-03-04T08:38:30;28.95;;;11.30;;
22883;SDS011;13386;24.786;110.488;2023-03-04T08:41:00;29.55;;;10.55;;
22883;SDS011;13386;24.786;110.488;2023-03-04T08:43:31;30.90;;;10.55;;
22883;SDS011;13386;24.786;110.488;2023-03-04T08:46:04;28.05;;;10.85;;
22883;SDS011;13386;24.786;110.488;2023-03-04T08:48:35;32.53;;;10.80;;
22883;SDS011;13386;24.786;110.488;2023-03-04T08:51:09;33.75;;;11.13;;
22883;SDS011;13386;24.786;110.488;2023-03-04T08:53:39;30.15;;;10.23;;
22883;SDS011;13386;24.786;110.488;2023-03-04T08:56:13;27.83;;;10.05;;
22883;SDS011;13386;24.786;110.488;2023-03-04T08:58:44;28.63;;;10.38;;
22883;SDS011;13386;24.786;110.488;2023-03-04T09:01:16;29.70;;;10.60;;
22883;SDS011;13386;24.786;110.488;2023-03-04T09:03:48;29.45;;;10.38;;
22883;SDS011;13386;24.786;110.488;2023-03-04T09:06:18;26.17;;;9.98;;
22883;SDS011;13386;24.786;110.488;2023-03-04T09:08:48;30.65;;;10.60;;
22883;SDS011;13386;24.786;110.488;2023-03-04T09:11:19;27.67;;;10.05;;
22883;SDS011;13386;24.786;110.488;2023-03-04T09:13:49;30.15;;;11.48;;
22883;SDS011;13386;24.786;110.488;2023-03-04T09:16:22;28.73;;;10.40;;
22883;SDS011;13386;24.786;110.488;2023-03-04T09:18:52;28.25;;;9.82;;
22883;SDS011;13386;24.786;110.488;2023-03-04T09:21:22;27.77;;;10.05;;
22883;SDS011;13386;24.786;110.488;2023-03-04T09:23:53;29.10;;;10.55;;
22883;SDS011;13386;24.786;110.488;2023-03-04T09:26:25;24.38;;;9.70;;
22883;SDS011;13386;24.786;110.488;2023-03-04T09:28:56;31.60;;;9.98;;
22883;SDS011;13386;24.786;110.488;2023-03-04T09:31:29;27.52;;;10.25;;
22883;SDS011;13386;24.786;110.488;2023-03-04T09:34:00;33.08;;;10.65;;
22883;SDS011;13386;24.786;110.488;2023-03-04T09:36:30;40.50;;;11.90;;
22883;SDS011;13386;24.786;110.488;2023-03-04T09:39:00;32.60;;;10.95;;
22883;SDS011;13386;24.786;110.488;2023-03-04T09:41:32;29.55;;;10.75;;
22883;SDS011;13386;24.786;110.488;2023-03-04T09:44:06;31.52;;;10.52;;
22883;SDS011;13386;24.786;110.488;2023-03-04T09:46:44;29.55;;;10.55;;
22883;SDS011;13386;24.786;110.488;2023-03-04T09:49:15;29.98;;;11.13;;
22883;SDS011;13386;24.786;110.488;2023-03-04T09:51:48;36.10;;;10.90;;
22883;SDS011;13386;24.786;110.488;2023-03-04T09:54:23;29.73;;;10.55;;
22883;SDS011;13386;24.786;110.488;2023-03-04T09:56:58;31.55;;;11.75;;
22883;SDS011;13386;24.786;110.488;2023-03-04T09:59:30;30.80;;;11.10;;
22883;SDS011;13386;24.786;110.488;2023-03-04T10:02:09;31.65;;;10.75;;
22883;SDS011;13386;24.786;110.488;2023-03-04T10:04:43;25.70;;;10.38;;
22883;SDS011;13386;24.786;110.488;2023-03-04T10:07:18;29.48;;;11.10;;
22883;SDS011;13386;24.786;110.488;2023-03-04T10:09:50;33.92;;;11.70;;
22883;SDS011;13386;24.786;110.488;2023-03-04T10:12:23;31.55;;;11.68;;
22883;SDS011;13386;24.786;110.488;2023-03-04T10:14:59;35.10;;;12.63;;
22883;SDS011;13386;24.786;110.488;2023-03-04T10:17:34;37.88;;;11.90;;
22883;SDS011;13386;24.786;110.488;2023-03-04T10:20:05;42.88;;;13.52;;
22883;SDS011;13386;24.786;110.488;2023-03-04T10:22:38;42.38;;;13.02;;
22883;SDS011;13386;24.786;110.488;2023-03-04T10:25:15;63.22;;;17.00;;
22883;SDS011;13386;24.786;110.488;2023-03-04T10:27:48;63.90;;;15.40;;
22883;SDS011;13386;24.786;110.488;2023-03-04T10:30:31;57.60;;;14.98;;
22883;SDS011;13386;24.786;110.488;2023-03-04T10:33:17;51.92;;;14.57;;
22883;SDS011;13386;24.786;110.488;2023-03-04T10:35:49;43.22;;;13.30;;
22883;SDS011;13386;24.786;110.488;2023-03-04T10:38:20;40.20;;;13.75;;
22883;SDS011;13386;24.786;110.488;2023-03-04T10:40:51;42.38;;;13.48;;
22883;SDS011;13386;24.786;110.488;2023-03-04T10:43:24;37.95;;;13.23;;
22883;SDS011;13386;24.786;110.488;2023-03-04T10:45:55;42.80;;;13.02;;
22883;SDS011;13386;24.786;110.488;2023-03-04T10:48:29;40.75;;;12.25;;
22883;SDS011;13386;24.786;110.488;2023-03-04T10:51:10;47.70;;;13.52;;
22883;SDS011;13386;24.786;110.488;2023-03-04T10:53:41;49.55;;;15.43;;
22883;SDS011;13386;24.786;110.488;2023-03-04T10:56:31;44.25;;;14.20;;
22883;SDS011;13386;24.786;110.488;2023-03-04T11:01:49;52.50;;;15.35;;
22883;SDS011;13386;24.786;110.488;2023-03-04T11:04:21;70.38;;;17.15;;
22883;SDS011;13386;24.786;110.488;2023-03-04T11:06:52;57.70;;;16.70;;
22883;SDS011;13386;24.786;110.488;2023-03-04T11:09:22;50.00;;;15.52;;
22883;SDS011;13386;24.786;110.488;2023-03-04T11:11:53;48.65;;;15.10;;
22883;SDS011;13386;24.786;110.488;2023-03-04T11:14:24;47.90;;;14.23;;
22883;SDS011;13386;24.786;110.488;2023-03-04T11:16:56;37.00;;;13.70;;
22883;SDS011;13386;24.786;110.488;2023-03-04T11:19:30;47.17;;;14.30;;
22883;SDS011;13386;24.786;110.488;2023-03-04T11:22:04;41.55;;;13.82;;
22883;SDS011;13386;24.786;110.488;2023-03-04T11:24:34;48.50;;;14.48;;
22883;SDS011;13386;24.786;110.488;2023-03-04T11:27:10;43.10;;;14.43;;
22883;SDS011;13386;24.786;110.488;2023-03-04T11:29:44;46.42;;;15.35;;
22883;SDS011;13386;24.786;110.488;2023-03-04T11:32:17;56.30;;;15.85;;
22883;SDS011;13386;24.786;110.488;2023-03-04T11:34:52;54.53;;;16.75;;
22883;SDS011;13386;24.786;110.488;2023-03-04T11:37:25;48.50;;;15.73;;
22883;SDS011;13386;24.786;110.488;2023-03-04T11:39:58;54.00;;;15.60;;
22883;SDS011;13386;24.786;110.488;2023-03-04T11:42:32;46.40;;;15.75;;
22883;SDS011;13386;24.786;110.488;2023-03-04T11:45:10;57.05;;;16.85;;
22883;SDS011;13386;24.786;110.488;2023-03-04T11:47:46;59.17;;;16.30;;
22883;SDS011;13386;24.786;110.488;2023-03-04T11:50:24;48.40;;;16.08;;
22883;SDS011;13386;24.786;110.488;2023-03-04T11:53:10;48.20;;;16.45;;
22883;SDS011;13386;24.786;110.488;2023-03-04T11:55:46;55.20;;;16.75;;
22883;SDS011;13386;24.786;110.488;2023-03-04T12:01:26;54.30;;;17.73;;
22883;SDS011;13386;24.786;110.488;2023-03-04T12:04:02;54.95;;;16.40;;
22883;SDS011;13386;24.786;110.488;2023-03-04T12:06:38;56.35;;;17.48;;
22883;SDS011;13386;24.786;110.488;2023-03-04T12:12:07;57.13;;;17.70;;
22883;SDS011;13386;24.786;110.488;2023-03-04T12:14:44;59.75;;;18.30;;
22883;SDS011;13386;24.786;110.488;2023-03-04T12:17:29;68.15;;;19.52;;
22883;SDS011;13386;24.786;110.488;2023-03-04T12:20:07;55.50;;;18.23;;
22883;SDS011;13386;24.786;110.488;2023-03-04T12:22:48;60.90;;;19.08;;
22883;SDS011;13386;24.786;110.488;2023-03-04T12:31:14;53.25;;;17.67;;
22883;SDS011;13386;24.786;110.488;2023-03-04T12:33:51;58.97;;;18.33;;
22883;SDS011;13386;24.786;110.488;2023-03-04T12:36:25;61.20;;;19.38;;
22883;SDS011;13386;24.786;110.488;2023-03-04T12:39:02;60.10;;;19.88;;
22883;SDS011;13386;24.786;110.488;2023-03-04T12:41:37;59.30;;;19.65;;
22883;SDS011;13386;24.786;110.488;2023-03-04T12:44:11;61.30;;;19.15;;
22883;SDS011;13386;24.786;110.488;2023-03-04T12:46:48;60.85;;;19.17;;
22883;SDS011;13386;24.786;110.488;2023-03-04T12:49:29;65.53;;;18.73;;
22883;SDS011;13386;24.786;110.488;2023-03-04T12:52:06;57.80;;;18.67;;
22883;SDS011;13386;24.786;110.488;2023-03-04T12:54:42;59.17;;;19.63;;
22883;SDS011;13386;24.786;110.488;2023-03-04T12:57:16;65.68;;;19.33;;
22883;SDS011;13386;24.786;110.488;2023-03-04T12:59:48;60.28;;;19.05;;
22883;SDS011;13386;24.786;110.488;2023-03-04T13:07:57;63.03;;;18.60;;
22883;SDS011;13386;24.786;110.488;2023-03-04T13:10:35;61.58;;;18.88;;
22883;SDS011;13386;24.786;110.488;2023-03-04T13:13:15;59.22;;;19.13;;
22883;SDS011;13386;24.786;110.488;2023-03-04T13:16:00;55.40;;;18.30;;
22883;SDS011;13386;24.786;110.488;2023-03-04T13:18:35;64.75;;;19.20;;
22883;SDS011;13386;24.786;110.488;2023-03-04T13:21:22;67.63;;;20.50;;
22883;SDS011;13386;24.786;110.488;2023-03-04T13:23:55;74.68;;;20.52;;
22883;SDS011;13386;24.786;110.488;2023-03-04T13:26:30;93.85;;;23.45;;
22883;SDS011;13386;24.786;110.488;2023-03-04T13:29:10;97.57;;;24.08;;
22883;SDS011;13386;24.786;110.488;2023-03-04T13:32:00;84.95;;;23.25;;
22883;SDS011;13386;24.786;110.488;2023-03-04T13:34:41;83.38;;;23.40;;
22883;SDS011;13386;24.786;110.488;2023-03-04T13:37:27;69.60;;;21.77;;
22883;SDS011;13386;24.786;110.488;2023-03-04T13:42:49;68.55;;;22.15;;
22883;SDS011;13386;24.786;110.488;2023-03-04T13:45:31;60.22;;;21.35;;
22883;SDS011;13386;24.786;110.488;2023-03-04T13:48:06;62.22;;;20.52;;
22883;SDS011;13386;24.786;110.488;2023-03-04T13:50:45;61.05;;;19.85;;
22883;SDS011;13386;24.786;110.488;2023-03-04T13:53:21;63.80;;;19.65;;
22883;SDS011;13386;24.786;110.488;2023-03-04T13:56:07;62.17;;;19.75;;
22883;SDS011;13386;24.786;110.488;2023-03-04T13:58:41;65.55;;;21.30;;
22883;SDS011;13386;24.786;110.488;2023-03-04T14:01:25;73.45;;;21.42;;
22883;SDS011;13386;24.786;110.488;2023-03-04T14:03:58;58.30;;;20.00;;
22883;SDS011;13386;24.786;110.488;2023-03-04T14:06:30;68.20;;;21.27;;
22883;SDS011;13386;24.786;110.488;2023-03-04T14:09:10;65.40;;;20.13;;
22883;SDS011;13386;24.786;110.488;2023-03-04T14:11:44;69.53;;;20.90;;
22883;SDS011;13386;24.786;110.488;2023-03-04T14:14:20;60.95;;;19.95;;
22883;SDS011;13386;24.786;110.488;2023-03-04T14:16:52;56.85;;;20.30;;
22883;SDS011;13386;24.786;110.488;2023-03-04T14:19:26;60.42;;;19.40;;
22883;SDS011;13386;24.786;110.488;2023-03-04T14:21:57;62.50;;;19.23;;
22883;SDS011;13386;24.786;110.488;2023-03-04T14:24:29;60.88;;;19.75;;
22883;SDS011;13386;24.786;110.488;2023-03-04T14:27:05;63.55;;;20.25;;
22883;SDS011;13386;24.786;110.488;2023-03-04T14:29:41;66.22;;;20.88;;
22883;SDS011;13386;24.786;110.488;2023-03-04T14:32:12;59.85;;;20.38;;
22883;SDS011;13386;24.786;110.488;2023-03-04T14:34:42;68.60;;;21.00;;
22883;SDS011;13386;24.786;110.488;2023-03-04T14:37:18;62.63;;;20.92;;
22883;SDS011;13386;24.786;110.488;2023-03-04T14:39:55;64.70;;;20.45;;
22883;SDS011;13386;24.786;110.488;2023-03-04T14:42:36;61.90;;;20.80;;
22883;SDS011;13386;24.786;110.488;2023-03-04T14:45:12;65.68;;;21.50;;
22883;SDS011;13386;24.786;110.488;2023-03-04T14:47:46;52.03;;;20.42;;
22883;SDS011;13386;24.786;110.488;2023-03-04T14:50:20;59.63;;;20.30;;
22883;SDS011;13386;24.786;110.488;2023-03-04T14:53:03;58.78;;;22.38;;
22883;SDS011;13386;24.786;110.488;2023-03-04T14:55:36;55.25;;;19.25;;